createdAt,value
2023-04-06T00:01:11.370Z,8.85
2023-04-06T00:06:15.985Z,9.55
2023-04-06T00:11:20.970Z,9.27
2023-04-06T00:16:25.075Z,10.05
2023-04-06T00:21:28.902Z,9.27
2023-04-06T00:31:35.463Z,9.25
2023-04-06T00:36:38.055Z,9.47
2023-04-06T00:41:47.773Z,10.40
2023-04-06T00:46:50.635Z,9.63
2023-04-06T00:51:53.327Z,9.17
2023-04-06T00:56:57.794Z,9.50
2023-04-06T01:02:00.649Z,10.27
2023-04-06T01:07:03.791Z,8.80
2023-04-06T01:12:07.738Z,9.57
2023-04-06T01:17:10.775Z,10.38
2023-04-06T01:22:17.316Z,10.52
2023-04-06T01:27:19.879Z,10.75
2023-04-06T01:32:22.617Z,11.55
2023-04-06T01:37:27.106Z,10.37
2023-04-06T01:42:31.229Z,10.80
2023-04-06T01:47:33.821Z,10.15
2023-04-06T01:52:39.447Z,10.43
2023-04-06T01:57:41.999Z,9.52
2023-04-06T02:02:44.592Z,10.77
2023-04-06T02:07:48.483Z,11.88
2023-04-06T02:12:51.274Z,11.45
2023-04-06T02:17:54.293Z,10.83
2023-04-06T02:22:58.813Z,10.30
2023-04-06T02:28:01.456Z,11.68
2023-04-06T02:33:04.962Z,10.80
2023-04-06T02:38:09.034Z,12.00
2023-04-06T02:43:11.662Z,11.60
2023-04-06T02:48:14.249Z,10.52
2023-04-06T02:53:18.142Z,12.45
2023-04-06T02:58:20.786Z,11.15
2023-04-06T03:03:23.448Z,11.20
2023-04-06T03:08:27.511Z,11.02
2023-04-06T03:13:31.241Z,11.25
2023-04-06T03:18:34.156Z,11.70
2023-04-06T03:23:38.039Z,10.83
2023-04-06T03:28:40.585Z,12.40
2023-04-06T03:33:43.242Z,12.20
2023-04-06T03:38:47.726Z,11.48
2023-04-06T03:43:50.934Z,11.93
2023-04-06T03:48:53.516Z,10.13
2023-04-06T03:53:57.402Z,12.60
2023-04-06T03:59:00.005Z,10.15
2023-04-06T04:04:02.729Z,10.27
2023-04-06T04:09:06.973Z,11.32
2023-04-06T04:14:09.690Z,11.15
2023-04-06T04:19:12.308Z,10.80
2023-04-06T04:24:16.324Z,11.52
2023-04-06T04:29:22.086Z,11.10
2023-04-06T04:34:26.197Z,11.02
2023-04-06T04:39:30.381Z,12.30
2023-04-06T04:44:32.973Z,11.65
2023-04-06T04:49:35.538Z,11.38
2023-04-06T04:54:41.279Z,13.05
2023-04-06T04:59:45.158Z,11.80
2023-04-06T05:04:47.726Z,11.50
2023-04-06T05:09:51.772Z,11.48
2023-04-06T05:14:55.063Z,11.68
2023-04-06T05:19:57.734Z,11.20
2023-04-06T05:25:01.700Z,11.48
2023-04-06T05:30:04.542Z,11.70
2023-04-06T05:35:07.736Z,11.50
2023-04-06T05:40:11.933Z,10.60
2023-04-06T05:45:17.767Z,11.77
2023-04-06T05:50:20.672Z,12.73
2023-04-06T05:55:24.612Z,12.33
2023-04-06T06:00:27.240Z,12.43
2023-04-06T06:05:31.171Z,12.30
2023-04-06T06:10:35.116Z,13.18
2023-04-06T06:15:37.721Z,13.88
2023-04-06T06:20:40.454Z,13.18
2023-04-06T06:25:44.434Z,13.10
2023-04-06T06:30:48.075Z,13.52
2023-04-06T06:40:55.118Z,12.02
2023-04-06T06:45:57.789Z,13.98
2023-04-06T06:51:00.435Z,14.10
2023-04-06T06:56:04.705Z,14.17
2023-04-06T07:01:07.506Z,13.23
2023-04-06T07:06:10.124Z,13.10
2023-04-06T07:11:14.111Z,13.73
2023-04-06T07:16:16.770Z,12.70
2023-04-06T07:21:21.246Z,12.52
2023-04-06T07:26:25.238Z,12.25
2023-04-06T07:31:28.043Z,11.85
2023-04-06T07:36:30.716Z,12.38
2023-04-06T07:41:34.706Z,11.53
2023-04-06T07:46:37.685Z,12.52
2023-04-06T07:51:41.220Z,11.68
2023-04-06T08:01:47.591Z,10.90
2023-04-06T08:06:50.352Z,10.73
2023-04-06T08:11:54.344Z,11.82
2023-04-06T08:16:56.930Z,10.95
2023-04-06T08:21:59.579Z,11.35
2023-04-06T08:27:04.005Z,11.38
2023-04-06T08:32:07.320Z,12.38
2023-04-06T08:42:20.979Z,11.75
2023-04-06T08:47:25.036Z,12.43
2023-04-06T08:52:29.683Z,11.77
2023-04-06T08:57:34.487Z,12.57
2023-04-06T09:02:41.914Z,13.30
2023-04-06T09:07:44.539Z,12.25
2023-04-06T09:12:48.439Z,12.33
2023-04-06T09:17:52.912Z,12.70
2023-04-06T09:22:56.230Z,13.00
2023-04-06T09:33:06.333Z,13.82
2023-04-06T09:38:13.207Z,12.98
2023-04-06T09:43:27.252Z,14.55
2023-04-06T09:48:33.190Z,14.52
2023-04-06T09:53:39.801Z,13.98
2023-04-06T09:58:47.496Z,14.23
2023-04-06T10:03:58.474Z,14.27
2023-04-06T10:09:04.260Z,14.57
2023-04-06T10:14:09.786Z,14.38
2023-04-06T10:19:16.958Z,15.20
2023-04-06T10:24:19.642Z,15.50
2023-04-06T10:29:23.616Z,14.70
2023-04-06T10:34:36.479Z,14.38
2023-04-06T10:39:47.882Z,14.23
2023-04-06T10:44:52.277Z,13.68
2023-04-06T10:49:54.920Z,12.88
2023-04-06T10:54:58.310Z,12.95
2023-04-06T11:00:02.259Z,12.45
2023-04-06T11:05:05.137Z,12.30
2023-04-06T11:10:15.075Z,11.80
2023-04-06T11:15:20.952Z,12.35
2023-04-06T11:20:23.604Z,13.05
2023-04-06T11:25:27.126Z,12.60
2023-04-06T11:30:31.296Z,13.02
2023-04-06T11:35:34.919Z,13.20
2023-04-06T11:40:37.787Z,13.70
2023-04-06T11:45:45.227Z,13.73
2023-04-06T11:50:49.647Z,14.32
2023-04-06T11:55:53.303Z,14.35
2023-04-06T12:01:05.612Z,13.27
2023-04-06T12:06:08.427Z,13.43
2023-04-06T12:11:11.187Z,13.25
2023-04-06T12:16:15.565Z,13.27
2023-04-06T12:21:19.320Z,11.95
2023-04-06T12:26:21.883Z,9.15
2023-04-06T12:31:26.749Z,10.80
2023-04-06T12:36:29.839Z,10.55
2023-04-06T12:41:32.461Z,9.65
2023-04-06T12:46:37.401Z,9.67
2023-04-06T12:51:40.065Z,8.93
2023-04-06T12:56:42.662Z,10.00
2023-04-06T13:01:46.717Z,9.17
2023-04-06T13:06:49.360Z,9.27
2023-04-06T13:11:53.120Z,10.10
2023-04-06T13:16:57.099Z,9.90
2023-04-06T13:21:59.860Z,9.07
2023-04-06T13:27:03.557Z,10.25
2023-04-06T13:32:08.673Z,10.27
2023-04-06T13:37:11.341Z,11.82
2023-04-06T13:42:13.968Z,10.50
2023-04-06T13:47:18.627Z,12.30
2023-04-06T13:52:21.697Z,11.43
2023-04-06T13:57:24.408Z,11.25
2023-04-06T14:02:28.647Z,12.57
2023-04-06T14:07:31.444Z,11.05
2023-04-06T14:12:34.092Z,12.97
2023-04-06T14:17:38.215Z,12.13
2023-04-06T14:22:41.191Z,11.85
2023-04-06T14:27:44.846Z,11.80
2023-04-06T14:32:49.214Z,11.57
2023-04-06T14:37:51.912Z,11.25
2023-04-06T14:42:55.799Z,10.93
2023-04-06T14:47:59.793Z,10.85
2023-04-06T14:53:02.538Z,9.48
2023-04-06T14:58:05.332Z,10.37
2023-04-06T15:03:09.584Z,9.40
2023-04-06T15:08:16.027Z,9.40
2023-04-06T15:13:19.406Z,10.10
2023-04-06T15:18:23.383Z,10.15
2023-04-06T15:23:26.012Z,8.15
2023-04-06T15:28:29.414Z,9.17
2023-04-06T15:33:33.340Z,8.10
2023-04-06T15:38:36.006Z,8.48
2023-04-06T15:43:40.594Z,10.23
2023-04-06T15:48:44.922Z,9.50
2023-04-06T15:53:47.663Z,9.63
2023-04-06T15:58:50.316Z,9.77
2023-04-06T16:03:54.299Z,10.55
2023-04-06T16:08:56.929Z,10.85
2023-04-06T16:14:00.104Z,10.90
2023-04-06T16:19:04.400Z,10.70
2023-04-06T16:24:08.548Z,11.27
2023-04-06T16:29:11.395Z,12.07
2023-04-06T16:34:15.548Z,11.23
2023-04-06T16:39:18.174Z,12.10
2023-04-06T16:44:20.799Z,12.20
2023-04-06T16:49:24.772Z,13.43
2023-04-06T16:54:27.490Z,14.60
2023-04-06T16:59:30.415Z,14.32
2023-04-06T17:04:34.349Z,15.07
2023-04-06T17:09:36.926Z,13.98
2023-04-06T17:14:39.513Z,15.02
2023-04-06T17:19:43.422Z,16.15
2023-04-06T17:24:46.192Z,15.32
2023-04-06T17:29:48.766Z,15.23
2023-04-06T17:34:52.694Z,14.93
2023-04-06T17:39:55.402Z,15.52
2023-04-06T17:44:59.270Z,15.80
2023-04-06T17:50:03.664Z,15.10
2023-04-06T17:55:06.517Z,14.65
2023-04-06T18:00:10.555Z,15.23
2023-04-06T18:05:14.514Z,15.45
2023-04-06T18:10:17.828Z,16.33
2023-04-06T18:15:20.418Z,16.55
2023-04-06T18:20:24.310Z,17.90
2023-04-06T18:25:27.260Z,17.33
2023-04-06T18:30:30.818Z,20.17
2023-04-06T18:40:38.452Z,21.20
2023-04-06T18:45:41.704Z,22.35
2023-04-06T18:50:54.212Z,24.08
2023-04-06T18:55:57.651Z,22.85
2023-04-06T19:01:00.545Z,23.15
2023-04-06T19:06:06.041Z,22.13
2023-04-06T19:11:08.790Z,22.17
2023-04-06T19:16:12.248Z,21.83
2023-04-06T19:21:20.492Z,23.15
2023-04-06T19:26:24.034Z,25.17
2023-04-06T19:31:28.068Z,24.02
2023-04-06T19:36:33.462Z,24.17
2023-04-06T19:41:36.078Z,22.95
2023-04-06T19:46:38.742Z,22.27
2023-04-06T19:51:42.759Z,24.73
2023-04-06T19:56:45.409Z,25.60
2023-04-06T20:01:48.154Z,25.77
2023-04-06T20:06:53.471Z,25.90
2023-04-06T20:11:56.150Z,27.58
2023-04-06T20:16:59.895Z,28.23
2023-04-06T20:22:04.944Z,26.70
2023-04-06T20:27:07.520Z,29.45
2023-04-06T20:32:11.125Z,29.05
2023-04-06T20:42:17.818Z,30.05
2023-04-06T20:47:20.385Z,30.97
2023-04-06T20:52:24.580Z,31.88
2023-04-06T20:57:27.170Z,30.85
2023-04-06T21:02:29.793Z,30.92
2023-04-06T21:07:33.769Z,30.77
2023-04-06T21:12:36.320Z,31.75
2023-04-06T21:17:38.918Z,29.67
2023-04-06T21:22:42.798Z,28.67
2023-04-06T21:27:45.359Z,30.48
2023-04-06T21:32:47.997Z,29.88
2023-04-06T21:37:51.967Z,27.97
2023-04-06T21:42:54.538Z,30.10
2023-04-06T21:47:57.132Z,27.55
2023-04-06T21:53:01.037Z,28.33
2023-04-06T21:58:03.655Z,27.33
2023-04-06T22:03:06.776Z,28.15
2023-04-06T22:08:15.197Z,27.63
2023-04-06T22:13:20.707Z,28.45
2023-04-06T22:18:23.371Z,27.45
2023-04-06T22:23:27.531Z,27.90
2023-04-06T22:28:30.107Z,28.45
2023-04-06T22:33:32.665Z,28.65
2023-04-06T22:38:36.700Z,30.42
2023-04-06T22:43:39.285Z,31.80
2023-04-06T22:48:41.829Z,30.48
2023-04-06T22:53:45.720Z,31.17
2023-04-06T22:58:48.514Z,32.42
2023-04-06T23:03:51.267Z,32.53
2023-04-06T23:08:55.488Z,32.50
2023-04-06T23:13:58.084Z,30.40
2023-04-06T23:19:00.897Z,31.27
2023-04-06T23:24:04.935Z,30.50
2023-04-06T23:29:07.497Z,32.58
2023-04-06T23:34:10.058Z,33.45
2023-04-06T23:39:13.946Z,32.25
2023-04-06T23:44:16.525Z,33.45
2023-04-06T23:49:19.070Z,34.35
2023-04-06T23:54:23.066Z,34.13
2023-04-06T23:59:25.769Z,36.03
